createdAt,value
2022-11-27T00:00:52.553Z,279.00
2022-11-27T00:03:20.577Z,282.70
2022-11-27T00:05:53.836Z,245.55
2022-11-27T00:08:21.718Z,250.85
2022-11-27T00:10:49.767Z,252.40
2022-11-27T00:13:18.032Z,278.58
2022-11-27T00:15:47.395Z,279.80
2022-11-27T00:18:15.452Z,262.90
2022-11-27T00:20:43.304Z,247.90
2022-11-27T00:23:11.167Z,255.55
2022-11-27T00:25:39.336Z,281.73
2022-11-27T00:28:07.205Z,273.80
2022-11-27T00:30:35.139Z,279.92
2022-11-27T00:33:04.701Z,282.45
2022-11-27T00:35:32.590Z,267.75
2022-11-27T00:38:00.522Z,292.00
2022-11-27T00:40:28.323Z,289.48
2022-11-27T00:42:56.183Z,259.02
2022-11-27T00:45:24.332Z,260.73
2022-11-27T00:47:52.108Z,291.98
2022-11-27T00:50:22.250Z,283.15
2022-11-27T00:52:52.892Z,310.35
2022-11-27T00:55:21.252Z,273.88
2022-11-27T00:57:49.279Z,288.45
2022-11-27T01:00:18.214Z,312.92
2022-11-27T01:02:46.155Z,284.25
2022-11-27T01:05:14.155Z,307.33
2022-11-27T01:07:43.480Z,300.92
2022-11-27T01:10:12.556Z,309.02
2022-11-27T01:12:40.382Z,277.98
2022-11-27T01:15:09.428Z,264.50
2022-11-27T01:17:37.380Z,244.02
2022-11-27T01:20:05.982Z,270.38
2022-11-27T01:22:34.392Z,271.92
2022-11-27T01:25:03.583Z,285.60
2022-11-27T01:27:31.485Z,287.08
2022-11-27T01:30:00.333Z,310.58
2022-11-27T01:32:30.515Z,341.58
2022-11-27T01:34:58.371Z,339.25
2022-11-27T01:37:26.275Z,358.65
2022-11-27T01:39:54.075Z,331.83
2022-11-27T01:42:23.266Z,316.10
2022-11-27T01:44:54.360Z,314.75
2022-11-27T01:47:32.635Z,294.20
2022-11-27T01:50:13.525Z,311.27
2022-11-27T01:52:45.985Z,284.98
2022-11-27T01:55:20.398Z,322.27
2022-11-27T01:57:52.763Z,285.98
2022-11-27T02:00:21.458Z,323.67
2022-11-27T02:02:49.840Z,312.58
2022-11-27T02:05:22.707Z,312.77
2022-11-27T02:07:52.282Z,327.05
2022-11-27T02:10:20.687Z,328.15
2022-11-27T02:12:57.694Z,302.20
2022-11-27T02:15:34.700Z,302.90
2022-11-27T02:18:13.435Z,289.92
2022-11-27T02:20:50.774Z,320.98
2022-11-27T02:23:52.448Z,314.95
2022-11-27T02:26:50.498Z,327.52
2022-11-27T02:29:23.988Z,330.60
2022-11-27T02:31:59.227Z,331.00
2022-11-27T02:34:35.516Z,308.17
2022-11-27T02:37:10.224Z,298.08
2022-11-27T02:39:43.651Z,331.92
2022-11-27T02:42:18.133Z,303.15
2022-11-27T02:44:54.045Z,309.92
2022-11-27T02:47:23.142Z,308.30
2022-11-27T02:49:52.951Z,288.55
2022-11-27T02:52:21.487Z,288.10
2022-11-27T02:54:53.090Z,276.75
2022-11-27T02:57:22.030Z,286.35
2022-11-27T02:59:51.945Z,295.23
2022-11-27T03:02:23.457Z,284.80
2022-11-27T03:04:55.085Z,282.27
2022-11-27T03:07:31.568Z,274.83
2022-11-27T03:10:08.292Z,271.17
2022-11-27T03:12:36.203Z,270.27
2022-11-27T03:15:06.316Z,280.58
2022-11-27T03:17:43.063Z,266.00
2022-11-27T03:20:17.815Z,305.65
2022-11-27T03:22:45.844Z,317.88
2022-11-27T03:25:16.141Z,317.35
2022-11-27T03:27:49.915Z,328.05
2022-11-27T03:30:19.261Z,330.60
2022-11-27T03:32:47.241Z,318.35
2022-11-27T03:35:19.287Z,349.48
2022-11-27T03:37:47.355Z,327.27
2022-11-27T03:40:16.400Z,374.20
2022-11-27T03:42:57.271Z,380.88
2022-11-27T03:45:33.374Z,398.95
2022-11-27T03:48:15.687Z,404.65
2022-11-27T03:50:56.515Z,417.60
2022-11-27T03:53:32.602Z,418.00
2022-11-27T03:56:10.278Z,396.05
2022-11-27T03:58:42.903Z,395.63
2022-11-27T04:01:15.719Z,363.05
2022-11-27T04:03:43.617Z,344.13
2022-11-27T04:06:12.015Z,359.85
2022-11-27T04:08:40.484Z,360.95
2022-11-27T04:11:08.844Z,334.15
2022-11-27T04:13:37.151Z,338.58
2022-11-27T04:16:05.599Z,344.00
2022-11-27T04:18:34.980Z,353.45
2022-11-27T04:21:02.860Z,364.48
2022-11-27T04:23:30.763Z,366.90
2022-11-27T04:25:58.594Z,377.20
2022-11-27T04:28:26.431Z,391.60
2022-11-27T04:30:55.181Z,398.90
2022-11-27T04:33:26.025Z,415.58
2022-11-27T04:35:55.415Z,385.27
2022-11-27T04:38:23.611Z,392.00
2022-11-27T04:40:53.380Z,368.77
2022-11-27T04:43:21.503Z,349.48
2022-11-27T04:45:50.001Z,344.55
2022-11-27T04:48:18.246Z,338.77
2022-11-27T04:50:46.294Z,338.58
2022-11-27T04:53:15.548Z,304.85
2022-11-27T04:55:43.384Z,294.90
2022-11-27T04:58:11.167Z,287.05
2022-11-27T05:00:39.318Z,310.20
2022-11-27T05:03:08.172Z,289.63
2022-11-27T05:05:36.134Z,298.98
2022-11-27T05:08:04.106Z,295.38
2022-11-27T05:10:33.388Z,266.27
2022-11-27T05:13:01.347Z,291.30
2022-11-27T05:15:29.354Z,266.63
2022-11-27T05:17:57.368Z,252.80
2022-11-27T05:20:25.243Z,234.68
2022-11-27T05:22:53.654Z,240.23
2022-11-27T05:25:21.510Z,237.38
2022-11-27T05:27:50.747Z,244.77
2022-11-27T05:30:18.748Z,237.98
2022-11-27T05:32:46.585Z,232.00
2022-11-27T05:35:14.426Z,220.98
2022-11-27T05:37:42.352Z,181.15
2022-11-27T05:40:10.894Z,201.85
2022-11-27T05:42:38.698Z,192.27
2022-11-27T05:45:09.278Z,200.73
2022-11-27T05:47:37.159Z,184.43
2022-11-27T05:50:05.438Z,199.38
2022-11-27T05:52:33.355Z,197.98
2022-11-27T05:55:01.201Z,195.27
2022-11-27T05:57:30.988Z,200.10
2022-11-27T05:59:59.168Z,157.80
2022-11-27T06:02:29.610Z,171.02
2022-11-27T06:04:57.699Z,149.50
2022-11-27T06:07:25.771Z,155.07
2022-11-27T06:09:53.728Z,143.48
2022-11-27T06:12:21.595Z,152.07
2022-11-27T06:14:49.505Z,137.70
2022-11-27T06:17:17.424Z,168.45
2022-11-27T06:19:46.777Z,181.77
2022-11-27T06:22:14.646Z,188.18
2022-11-27T06:24:42.785Z,150.05
2022-11-27T06:27:10.912Z,194.48
2022-11-27T06:29:39.273Z,182.35
2022-11-27T06:32:07.660Z,190.30
2022-11-27T06:34:35.559Z,169.82
2022-11-27T06:37:08.091Z,186.15
2022-11-27T06:39:39.684Z,184.00
2022-11-27T06:42:07.494Z,196.38
2022-11-27T06:44:35.345Z,196.30
2022-11-27T06:47:03.350Z,182.35
2022-11-27T06:49:31.262Z,192.80
2022-11-27T06:51:59.191Z,203.57
2022-11-27T06:54:28.635Z,212.93
2022-11-27T06:56:56.556Z,202.30
2022-11-27T06:59:24.375Z,200.18
2022-11-27T07:01:52.407Z,195.18
2022-11-27T07:04:20.378Z,196.32
2022-11-27T07:06:48.378Z,197.98
2022-11-27T07:09:16.861Z,196.43
2022-11-27T07:11:46.140Z,181.95
2022-11-27T07:14:14.068Z,194.85
2022-11-27T07:16:41.906Z,184.85
2022-11-27T07:19:09.912Z,205.95
2022-11-27T07:21:39.095Z,239.63
2022-11-27T07:24:07.896Z,226.38
2022-11-27T07:26:35.681Z,262.83
2022-11-27T07:29:04.910Z,258.95
2022-11-27T07:31:32.723Z,284.60
2022-11-27T07:34:00.885Z,272.88
2022-11-27T07:36:30.909Z,273.15
2022-11-27T07:38:59.161Z,299.33
2022-11-27T07:41:33.721Z,268.52
2022-11-27T07:44:02.530Z,262.48
2022-11-27T07:46:31.840Z,270.88
2022-11-27T07:49:01.927Z,284.63
2022-11-27T07:51:31.985Z,286.80
2022-11-27T07:54:04.689Z,288.98
2022-11-27T07:56:34.818Z,294.98
2022-11-27T08:01:51.850Z,284.27
2022-11-27T08:04:20.173Z,271.52
2022-11-27T08:06:52.572Z,269.90
2022-11-27T08:09:21.838Z,264.85
2022-11-27T08:11:50.045Z,244.15
2022-11-27T08:14:20.266Z,218.93
2022-11-27T08:16:49.598Z,204.98
2022-11-27T08:19:17.431Z,247.32
2022-11-27T08:21:45.259Z,221.40
2022-11-27T08:24:13.066Z,236.85
2022-11-27T08:26:41.254Z,238.27
2022-11-27T08:29:11.807Z,192.10
2022-11-27T08:31:40.063Z,223.82
2022-11-27T08:34:09.406Z,218.18
2022-11-27T08:36:38.684Z,240.10
2022-11-27T08:39:06.874Z,235.20
2022-11-27T08:41:34.799Z,270.48
2022-11-27T08:44:06.705Z,259.88
2022-11-27T08:46:36.962Z,229.27
2022-11-27T08:49:04.792Z,227.60
2022-11-27T08:51:33.981Z,240.55
2022-11-27T08:54:01.788Z,210.63
2022-11-27T08:56:29.863Z,183.68
2022-11-27T08:58:58.102Z,163.88
2022-11-27T09:01:27.945Z,167.25
2022-11-27T09:03:56.586Z,161.52
2022-11-27T09:06:28.482Z,186.52
2022-11-27T09:08:59.521Z,134.90
2022-11-27T09:11:28.840Z,164.98
2022-11-27T09:13:56.702Z,208.93
2022-11-27T09:16:25.375Z,203.20
2022-11-27T09:18:55.058Z,230.43
2022-11-27T09:21:27.309Z,231.65
2022-11-27T09:23:56.189Z,271.63
2022-11-27T09:26:27.911Z,274.58
2022-11-27T09:28:56.686Z,270.42
2022-11-27T09:31:26.032Z,266.27
2022-11-27T09:33:54.081Z,279.63
2022-11-27T09:36:24.408Z,263.48
2022-11-27T09:38:52.852Z,192.18
2022-11-27T09:41:39.516Z,229.98
2022-11-27T09:44:26.955Z,238.45
2022-11-27T09:46:56.617Z,198.77
2022-11-27T09:49:28.836Z,226.10
2022-11-27T09:52:03.419Z,223.98
2022-11-27T09:54:37.291Z,193.32
2022-11-27T09:57:07.776Z,265.23
2022-11-27T09:59:44.473Z,268.50
2022-11-27T10:02:19.117Z,257.85
2022-11-27T10:05:12.382Z,248.02
2022-11-27T10:07:48.262Z,265.42
2022-11-27T10:10:32.470Z,230.32
2022-11-27T10:13:11.403Z,232.63
2022-11-27T10:15:45.299Z,198.05
2022-11-27T10:18:21.024Z,235.20
2022-11-27T10:20:52.320Z,262.90
2022-11-27T10:23:31.315Z,283.63
2022-11-27T10:26:03.915Z,283.83
2022-11-27T10:28:41.904Z,297.50
2022-11-27T10:31:14.939Z,283.33
2022-11-27T10:33:48.211Z,277.50
2022-11-27T10:36:20.027Z,295.98
2022-11-27T10:38:49.635Z,311.90
2022-11-27T10:44:26.875Z,340.73
2022-11-27T10:47:00.012Z,332.20
2022-11-27T10:49:27.828Z,315.50
2022-11-27T10:51:55.636Z,326.88
2022-11-27T10:54:28.884Z,318.58
2022-11-27T10:57:15.867Z,331.60
2022-11-27T10:59:57.599Z,342.80
2022-11-27T11:02:30.780Z,349.75
2022-11-27T11:05:23.966Z,347.48
2022-11-27T11:07:56.489Z,338.65
2022-11-27T11:10:29.747Z,334.00
2022-11-27T11:13:14.926Z,304.77
2022-11-27T11:15:53.359Z,328.58
2022-11-27T11:18:23.019Z,333.17
2022-11-27T11:20:54.252Z,344.73
2022-11-27T11:23:26.210Z,324.90
2022-11-27T11:25:57.225Z,306.02
2022-11-27T11:28:26.452Z,293.42
2022-11-27T11:30:58.704Z,302.73
2022-11-27T11:33:29.528Z,290.42
2022-11-27T11:36:08.531Z,280.25
2022-11-27T11:38:38.120Z,279.67
2022-11-27T11:41:09.663Z,268.90
2022-11-27T11:43:38.372Z,248.38
2022-11-27T11:46:18.252Z,282.33
2022-11-27T11:49:01.702Z,268.33
2022-11-27T11:51:47.857Z,248.82
2022-11-27T11:54:31.479Z,254.38
2022-11-27T11:57:03.483Z,237.27
2022-11-27T11:59:45.336Z,239.35
2022-11-27T12:02:40.814Z,250.82
2022-11-27T12:05:28.152Z,282.00
2022-11-27T12:08:15.120Z,262.80
2022-11-27T12:10:55.241Z,244.00
2022-11-27T12:13:38.826Z,265.52
2022-11-27T12:16:13.382Z,248.73
2022-11-27T12:19:02.927Z,204.02
2022-11-27T12:21:44.764Z,234.77
2022-11-27T12:24:28.110Z,250.63
2022-11-27T12:27:12.735Z,251.93
2022-11-27T12:30:03.228Z,259.73
2022-11-27T12:32:57.612Z,255.55
2022-11-27T12:35:34.838Z,271.05
2022-11-27T12:38:21.106Z,242.90
2022-11-27T12:41:05.733Z,247.05
2022-11-27T12:43:38.816Z,290.45
2022-11-27T12:46:14.772Z,327.58
2022-11-27T12:48:48.675Z,319.25
2022-11-27T12:51:26.912Z,338.75
2022-11-27T12:54:05.695Z,298.80
2022-11-27T12:56:39.788Z,306.48
2022-11-27T12:59:19.782Z,321.05
2022-11-27T13:01:54.257Z,285.63
2022-11-27T13:04:27.416Z,314.48
2022-11-27T13:07:06.627Z,336.05
2022-11-27T13:09:45.003Z,326.10
2022-11-27T13:12:19.652Z,371.20
2022-11-27T13:14:56.056Z,335.38
2022-11-27T13:17:28.901Z,363.65
2022-11-27T13:19:57.367Z,324.15
2022-11-27T13:22:36.362Z,308.02
2022-11-27T13:25:08.698Z,299.33
2022-11-27T13:27:38.712Z,319.27
2022-11-27T13:30:08.642Z,337.77
2022-11-27T13:32:39.529Z,316.95
2022-11-27T13:35:20.276Z,316.60
2022-11-27T13:37:56.463Z,320.88
2022-11-27T13:40:28.948Z,303.40
2022-11-27T13:43:00.446Z,303.17
2022-11-27T13:45:31.549Z,378.17
2022-11-27T13:48:02.975Z,332.95
2022-11-27T13:50:31.876Z,383.65
2022-11-27T13:53:04.584Z,330.58
2022-11-27T13:55:34.058Z,321.00
2022-11-27T13:58:03.583Z,334.83
2022-11-27T14:00:37.362Z,345.88
2022-11-27T14:03:06.059Z,333.98
2022-11-27T14:05:40.729Z,332.20
2022-11-27T14:08:21.834Z,319.50
2022-11-27T14:10:53.272Z,325.73
2022-11-27T14:13:26.207Z,320.77
2022-11-27T14:16:02.276Z,307.95
2022-11-27T14:18:32.016Z,299.88
2022-11-27T14:21:03.008Z,337.42
2022-11-27T14:23:34.560Z,300.65
2022-11-27T14:26:04.244Z,331.65
2022-11-27T14:28:35.787Z,325.55
2022-11-27T14:31:04.339Z,340.05
2022-11-27T14:33:59.555Z,350.10
2022-11-27T14:36:25.557Z,326.38
2022-11-27T14:38:54.994Z,316.25
2022-11-27T14:41:25.686Z,293.77
2022-11-27T14:44:01.398Z,307.13
2022-11-27T14:46:30.161Z,285.30
2022-11-27T14:48:58.110Z,278.98
2022-11-27T14:51:27.567Z,276.08
2022-11-27T14:54:01.143Z,289.83
2022-11-27T14:56:32.433Z,300.98
2022-11-27T14:59:01.721Z,304.75
2022-11-27T15:01:31.913Z,325.23
2022-11-27T15:04:00.541Z,331.52
2022-11-27T15:06:35.026Z,375.35
2022-11-27T15:09:30.193Z,379.27
2022-11-27T15:11:56.513Z,292.23
2022-11-27T15:14:26.889Z,309.17
2022-11-27T15:16:55.262Z,286.80
2022-11-27T15:19:28.487Z,280.50
2022-11-27T15:21:57.777Z,272.23
2022-11-27T15:24:32.670Z,212.93
2022-11-27T15:27:19.082Z,261.90
2022-11-27T15:30:01.619Z,268.25
2022-11-27T15:32:45.736Z,231.18
2022-11-27T15:35:16.062Z,261.30
2022-11-27T15:37:44.293Z,229.68
2022-11-27T15:40:36.095Z,238.80
2022-11-27T15:43:04.733Z,225.93
2022-11-27T15:45:34.128Z,187.60
2022-11-27T15:48:02.966Z,187.52
2022-11-27T15:50:31.481Z,169.85
2022-11-27T15:53:01.040Z,160.13
2022-11-27T15:55:29.560Z,188.65
2022-11-27T15:57:58.855Z,197.18
2022-11-27T16:00:27.000Z,243.10
2022-11-27T16:02:55.193Z,253.18
2022-11-27T16:05:23.128Z,223.52
2022-11-27T16:07:54.907Z,232.15
2022-11-27T16:10:23.138Z,234.73
2022-11-27T16:12:55.020Z,229.45
2022-11-27T16:15:28.750Z,268.35
2022-11-27T16:17:59.807Z,299.98
2022-11-27T16:20:28.736Z,267.45
2022-11-27T16:22:56.677Z,275.42
2022-11-27T16:25:25.537Z,247.98
2022-11-27T16:28:06.998Z,277.92
2022-11-27T16:30:36.710Z,240.43
2022-11-27T16:33:09.105Z,268.33
2022-11-27T16:36:32.543Z,268.92
2022-11-27T16:39:02.235Z,263.98
2022-11-27T16:41:35.621Z,288.00
2022-11-27T16:44:12.227Z,276.20
2022-11-27T16:46:46.375Z,268.73
2022-11-27T16:49:23.098Z,278.23
2022-11-27T16:51:53.652Z,268.63
2022-11-27T16:54:21.818Z,300.27
2022-11-27T16:56:52.934Z,328.70
2022-11-27T16:59:30.578Z,334.17
2022-11-27T17:02:05.844Z,314.08
2022-11-27T17:04:36.008Z,398.38
2022-11-27T17:07:04.170Z,400.58
2022-11-27T17:09:32.259Z,381.90
2022-11-27T17:13:00.793Z,372.23
2022-11-27T17:19:36.306Z,357.95
2022-11-27T17:22:04.337Z,293.35
2022-11-27T17:24:35.837Z,307.73
2022-11-27T17:27:04.055Z,303.45
2022-11-27T17:29:37.915Z,323.42
2022-11-27T17:32:08.818Z,317.33
2022-11-27T17:39:25.975Z,278.38
2022-11-27T17:41:58.108Z,307.98
2022-11-27T17:44:26.250Z,307.77
2022-11-27T17:46:56.592Z,316.77
2022-11-27T17:49:26.736Z,291.67
2022-11-27T17:51:54.744Z,279.50
2022-11-27T17:54:31.168Z,295.23
2022-11-27T17:57:00.679Z,294.10
2022-11-27T17:59:29.308Z,268.50
2022-11-27T18:02:04.067Z,278.75
2022-11-27T18:04:39.458Z,297.67
2022-11-27T18:07:07.645Z,312.50
2022-11-27T18:09:35.495Z,332.48
2022-11-27T18:12:09.021Z,303.25
2022-11-27T18:15:00.692Z,316.67
2022-11-27T18:17:49.102Z,281.58
2022-11-27T18:24:23.906Z,287.70
2022-11-27T18:27:16.547Z,286.98
2022-11-27T18:29:48.876Z,282.95
2022-11-27T18:32:29.137Z,268.98
2022-11-27T18:35:20.438Z,267.80
2022-11-27T18:38:00.942Z,286.63
2022-11-27T18:41:30.686Z,300.65
2022-11-27T18:43:56.017Z,305.98
2022-11-27T18:46:32.720Z,306.35
2022-11-27T18:49:41.003Z,321.05
2022-11-27T18:52:18.394Z,337.30
2022-11-27T18:55:54.899Z,323.17
2022-11-27T18:58:23.107Z,390.55
2022-11-27T19:01:23.569Z,312.67
2022-11-27T19:04:22.468Z,364.60
2022-11-27T19:07:02.939Z,324.92
2022-11-27T19:10:18.893Z,370.20
2022-11-27T19:18:45.144Z,355.25
2022-11-27T19:21:57.171Z,380.42
2022-11-27T19:24:27.075Z,361.77
2022-11-27T19:26:55.019Z,344.15
2022-11-27T19:29:22.876Z,363.80
2022-11-27T19:31:51.240Z,331.00
2022-11-27T19:34:20.706Z,316.77
2022-11-27T19:36:49.925Z,365.00
2022-11-27T19:39:20.209Z,388.05
2022-11-27T19:41:48.159Z,383.35
2022-11-27T19:44:18.024Z,394.88
2022-11-27T19:46:47.054Z,324.02
2022-11-27T19:49:17.037Z,340.33
2022-11-27T19:51:46.841Z,360.23
2022-11-27T19:54:19.161Z,329.98
2022-11-27T19:56:47.555Z,372.95
2022-11-27T19:59:21.387Z,399.85
2022-11-27T20:01:52.868Z,417.40
2022-11-27T20:04:21.132Z,378.73
2022-11-27T20:06:51.820Z,402.60
2022-11-27T20:09:21.103Z,385.02
2022-11-27T20:11:49.494Z,414.77
2022-11-27T20:14:17.877Z,418.88
2022-11-27T20:16:47.955Z,429.05
2022-11-27T20:19:16.070Z,412.70
2022-11-27T20:21:43.972Z,425.23
2022-11-27T20:24:19.298Z,412.75
2022-11-27T20:26:49.010Z,421.20
2022-11-27T20:29:19.125Z,420.27
2022-11-27T20:31:47.911Z,411.10
2022-11-27T20:34:21.076Z,417.80
2022-11-27T20:36:55.289Z,439.65
2022-11-27T20:39:26.909Z,415.63
2022-11-27T20:41:58.730Z,456.30
2022-11-27T20:44:41.506Z,457.85
2022-11-27T20:50:59.054Z,384.60
2022-11-27T20:53:29.306Z,375.27
2022-11-27T20:56:12.991Z,374.90
2022-11-27T20:58:58.957Z,357.60
2022-11-27T21:03:23.880Z,358.25
2022-11-27T21:04:37.693Z,353.90
2022-11-27T21:07:05.732Z,340.52
2022-11-27T21:09:40.766Z,330.20
2022-11-27T21:12:39.358Z,298.23
2022-11-27T21:15:13.252Z,315.85
2022-11-27T21:17:53.292Z,309.17
2022-11-27T21:20:23.347Z,339.15
2022-11-27T21:22:51.183Z,333.05
2022-11-27T21:25:24.024Z,347.67
2022-11-27T21:27:55.949Z,383.70
2022-11-27T21:30:25.808Z,353.77
2022-11-27T21:32:53.685Z,310.52
2022-11-27T21:35:21.580Z,314.13
2022-11-27T21:37:49.439Z,274.63
2022-11-27T21:40:17.630Z,284.15
2022-11-27T21:42:45.699Z,260.75
2022-11-27T21:45:13.502Z,336.98
2022-11-27T21:47:42.903Z,337.98
2022-11-27T21:50:14.604Z,331.08
2022-11-27T21:52:42.632Z,312.02
2022-11-27T21:55:12.210Z,308.73
2022-11-27T21:57:40.276Z,283.80
2022-11-27T22:00:09.802Z,260.77
2022-11-27T22:02:37.832Z,219.50
2022-11-27T22:05:08.228Z,260.33
2022-11-27T22:07:36.252Z,261.70
2022-11-27T22:10:04.500Z,252.45
2022-11-27T22:12:32.359Z,262.90
2022-11-27T22:15:00.171Z,271.45
2022-11-27T22:17:28.060Z,228.95
2022-11-27T22:19:55.982Z,176.38
2022-11-27T22:22:25.446Z,189.57
2022-11-27T22:24:53.896Z,223.32
2022-11-27T22:27:22.148Z,201.40
2022-11-27T22:29:49.970Z,221.00
2022-11-27T22:32:17.823Z,234.98
2022-11-27T22:34:45.793Z,246.68
2022-11-27T22:37:13.930Z,257.13
2022-11-27T22:39:44.285Z,272.05
2022-11-27T22:42:12.240Z,251.77
2022-11-27T22:44:40.583Z,234.20
2022-11-27T22:47:08.827Z,237.32
2022-11-27T22:49:37.418Z,234.93
2022-11-27T22:52:05.959Z,193.65
2022-11-27T22:54:33.902Z,220.25
2022-11-27T22:57:03.067Z,244.85
2022-11-27T22:59:33.189Z,252.00
2022-11-27T23:02:02.411Z,284.27
2022-11-27T23:04:30.350Z,290.70
2022-11-27T23:06:58.615Z,270.67
2022-11-27T23:09:27.100Z,219.90
2022-11-27T23:11:56.510Z,249.13
2022-11-27T23:14:26.674Z,254.57
2022-11-27T23:16:54.691Z,284.27
2022-11-27T23:19:22.689Z,225.45
2022-11-27T23:21:50.522Z,302.08
2022-11-27T23:24:18.561Z,373.80
2022-11-27T23:26:46.475Z,392.52
2022-11-27T23:29:15.058Z,392.48
2022-11-27T23:31:44.633Z,403.23
2022-11-27T23:34:16.057Z,424.00
2022-11-27T23:36:44.134Z,416.83
2022-11-27T23:39:14.380Z,385.80
2022-11-27T23:41:43.017Z,410.50
2022-11-27T23:44:10.897Z,418.83
2022-11-27T23:46:38.836Z,434.30
2022-11-27T23:49:08.144Z,401.75
2022-11-27T23:51:36.024Z,395.15
2022-11-27T23:54:08.190Z,389.52
2022-11-27T23:56:36.418Z,394.33
2022-11-27T23:59:04.977Z,397.38
